Have a Safe July 4th! 

Flight Track Log - Related Links

Times and Time Zones

All times are in EDT time to prevent confusion due to time zone crossing. See the UAL6012 flight status page for this flight to view local times or setup timezone preferences in your user account.

Time Position Orientation Groundspeed Altitude Reporting Facility
EDT Latitude Longitude Course Direction KTS MPH feet Rate Location/Type
Sun 10:18:44 AM 29.9686 -95.3461 240° Southwest 165 190  Level FlightAware ADS-B
Sun 10:18:59 AM 29.9592 -95.3395 149° Southeast 160 184 700 2,438 Climbing FlightAware ADS-B
Sun 10:19:16 AM 29.9513 -95.3284 129° Southeast 158 182 1,300 1,800 Climbing FlightAware ADS-B
Sun 10:19:19 AM 29.9499 -95.3260 124° Southeast 176 203 1,300 1,091 Level FlightAware ADS-B
Sun 10:19:38 AM 29.9403 -95.3100 125° Southeast 194 223 1,700 1,588 Climbing FlightAware ADS-B
Sun 10:19:53 AM 29.9314 -95.2949 124° Southeast 230 265 2,200 2,400 Climbing FlightAware ADS-B
Sun 10:20:08 AM 29.9220 -95.2796 125° Southeast 240 276 2,900 2,600 Climbing FlightAware ADS-B
Sun 10:20:23 AM 29.9118 -95.2630 125° Southeast 261 300 3,500 1,800 Climbing FlightAware ADS-B
Sun 10:20:38 AM 29.9008 -95.2447 125° Southeast 288 331 3,800 2,143 Climbing FlightAware ADS-B
Sun 10:20:51 AM 29.8910 -95.2279 124° Southeast 299 344 4,500 2,824 Climbing FlightAware ADS-B
Sun 10:20:55 AM 29.8884 -95.2235 124° Southeast 300 345 4,600 3,474 Climbing FlightAware ADS-B
Sun 10:21:10 AM 29.8768 -95.2025 122° Southeast 303 349 5,600 4,500 Climbing FlightAware ADS-B
Sun 10:21:11 AM 29.8748 -95.1988 122° Southeast 301 346 5,800 4,400 Climbing FlightAware ADS-B
Sun 10:21:25 AM 29.8656 -95.1820 122° Southeast 298 343 6,700 4,421 Climbing FlightAware ADS-B
Sun 10:21:30 AM 29.8607 -95.1728 122° Southeast 298 343 7,200 3,600 Climbing FlightAware ADS-B
Sun 10:21:40 AM 29.8546 -95.1615 122° Southeast 299 344 7,600 2,880 Climbing FlightAware ADS-B
Sun 10:21:55 AM 29.8436 -95.1408 121° Southeast 308 354 8,400 3,097 Climbing FlightAware ADS-B
Sun 10:22:11 AM 29.8324 -95.1189 121° Southeast 313 360 9,200 3,103 Climbing FlightAware ADS-B
Sun 10:22:24 AM 29.8223 -95.0993 121° Southeast 316 364 9,900 3,333 Climbing FlightAware ADS-B
Sun 10:22:29 AM 29.8186 -95.0930 124° Southeast 314 361 10,200 4,200 Climbing FlightAware ADS-B
Sun 10:22:34 AM 29.8136 -95.0863 131° Southeast 310 357 10,600 4,000 Climbing FlightAware ADS-B
Sun 10:22:38 AM 29.8094 -95.0823 140° Southeast 305 351 10,800 3,333 Climbing FlightAware ADS-B
Sun 10:22:43 AM 29.8033 -95.0776 146° Southeast 300 345 11,100 3,273 Climbing FlightAware ADS-B
Sun 10:22:49 AM 29.7968 -95.0738 153° Southeast 299 344 11,400 4,500 Climbing FlightAware ADS-B
Sun 10:22:51 AM 29.7914 -95.0714 159° South 298 343 11,700 4,500 Climbing FlightAware ADS-B
Sun 10:22:53 AM 29.7909 -95.0712 164° South 298 343 11,700 2,889 Level FlightAware ADS-B
Sun 10:23:18 AM 29.7578 -95.0599 163° South 301 346 13,000 3,158 Climbing FlightAware ADS-B
Sun 10:23:31 AM 29.7382 -95.0523 162° South 308 354 13,700 2,800 Climbing FlightAware ADS-B
Sun 10:23:48 AM 29.7169 -95.0440 161° South 313 360 14,400 1,950 Climbing FlightAware ADS-B
Sun 10:24:11 AM 29.6831 -95.0306 161° South 336 387 15,000 1,742 Climbing FlightAware ADS-B
Sun 10:24:19 AM 29.6733 -95.0267 161° South 339 390 15,300 2,400 Climbing FlightAware ADS-B
Sun 10:24:41 AM 29.6406 -95.0139 161° South 351 404 16,200 2,200 Climbing FlightAware ADS-B
Sun 10:24:49 AM 29.6268 -95.0085 161° South 355 409 16,400 2,000 Climbing FlightAware ADS-B
Sun 10:25:11 AM 29.5901 -94.9940 161° South 367 422 17,200 2,000 Climbing FlightAware ADS-B
Sun 10:25:19 AM 29.5792 -94.9897 161° South 370 426 17,400 2,600 Climbing FlightAware ADS-B
Sun 10:25:41 AM 29.5415 -94.9748 161° South 372 428 18,500 2,897 Climbing FlightAware ADS-B
Sun 10:25:48 AM 29.5323 -94.9712 161° South 371 427 18,800 2,432 Climbing FlightAware ADS-B
Sun 10:26:18 AM 29.4825 -94.9515 161° South 379 436 20,000 2,200 Climbing FlightAware ADS-B
Sun 10:26:48 AM 29.4321 -94.9317 161° South 388 447 21,000 2,066 Climbing FlightAware ADS-B
Sun 10:27:19 AM 29.3795 -94.9109 161° South 393 452 22,100 2,182 Climbing FlightAware ADS-B
Sun 10:27:54 AM 29.3198 -94.8875 161° South 396 456 23,400 2,182 Climbing FlightAware ADS-B
Sun 10:28:03 AM 29.3030 -94.8805 160° South 402 463 23,700 1,846 Climbing FlightAware ADS-B
Sun 10:28:07 AM 29.2956 -94.8767 156° South 405 466 23,800 1,800 Climbing FlightAware ADS-B
Sun 10:28:13 AM 29.2859 -94.8704 150° Southeast 409 471 24,000 1,600 Climbing FlightAware ADS-B
Sun 10:28:22 AM 29.2719 -94.8591 145° Southeast 417 480 24,200 857 Climbing FlightAware ADS-B
Sun 10:28:27 AM 29.2649 -94.8518 138° Southeast 422 486 24,200 1,636 Level FlightAware ADS-B
Sun 10:28:33 AM 29.2572 -94.8418 131° Southeast 423 487 24,500 2,250 Climbing FlightAware ADS-B
Sun 10:28:43 AM 29.2460 -94.8236 125° Southeast 428 493 24,800 1,538 Climbing FlightAware ADS-B
Sun 10:29:12 AM 29.2154 -94.7657 121° Southeast 440 506 25,500 1,385 Climbing FlightAware ADS-B
Sun 10:29:22 AM 29.2046 -94.7484 126° Southeast 441 507 25,700 1,543 Climbing FlightAware ADS-B
Sun 10:29:47 AM 29.1708 -94.7043 131° Southeast 445 512 26,400 1,714 Climbing FlightAware ADS-B
Sun 10:30:18 AM 29.1252 -94.6521 135° Southeast 451 519 27,300 1,475 Climbing FlightAware ADS-B
Sun 10:30:48 AM 29.0785 -94.6022 137° Southeast 461 531 27,900 1,500 Climbing FlightAware ADS-B
Sun 10:31:18 AM 29.0316 -94.5521 137° Southeast 462 532 28,800 1,574 Climbing FlightAware ADS-B
Sun 10:31:49 AM 28.9837 -94.5004 137° Southeast 470 541 29,500 1,180 Climbing FlightAware ADS-B
Sun 10:32:19 AM 28.9345 -94.4478 137° Southeast 480 552 30,000 1,065 Climbing FlightAware ADS-B
Sun 10:32:51 AM 28.8818 -94.3948 139° Southeast 490 564 30,600 986 Climbing FlightAware ADS-B
Sun 10:33:32 AM 28.8143 -94.3196 136° Southeast 500 575 31,200 822 Climbing FlightAware ADS-B
Sun 10:34:04 AM 28.7692 -94.2509 127° Southeast 513 590 31,600 1,212 Climbing FlightAware ADS-B
Sun 10:35:16 AM 28.6662 -94.0962 127° Southeast 514 592 33,300 -358 Climbing FlightAware ADS-B
Sun 10:36:18 AM 28.5850 -94.0810 171° South 496 571 30,800 -1,531 Descending FlightAware ADS-B
Sun 10:36:54 AM 28.5330 -94.0260 137° Southeast 496 571 30,800  Level FlightAware ADS-B
Sun 10:37:41 AM 28.4660 -93.9550 137° Southeast 496 571 30,800  Level FlightAware ADS-B
Sun 10:38:15 AM 28.4180 -93.9040 137° Southeast 496 571 30,800  Level FlightAware ADS-B
Sun 10:39:03 AM 28.3490 -93.8310 137° Southeast 496 571 30,800  Level FlightAware ADS-B
Sun 10:39:39 AM 28.2980 -93.7770 137° Southeast 496 571 30,800  Level FlightAware ADS-B
Sun 10:40:27 AM 28.2290 -93.7040 137° Southeast 496 571 30,800  Level FlightAware ADS-B
Sun 10:41:04 AM 28.1770 -93.6490 137° Southeast 496 571 30,800  Level FlightAware ADS-B
Sun 10:41:54 AM 28.1050 -93.5730 137° Southeast 496 571 30,800  Level FlightAware ADS-B
Sun 10:42:30 AM 28.0540 -93.5190 137° Southeast 496 571 30,800  Level FlightAware ADS-B
Sun 10:43:07 AM 28.0010 -93.4630 137° Southeast 496 571 30,800 2,121 Level FlightAware ADS-B
Sun 10:44:26 AM 27.8708 -92.9372 137° Southeast 519 597 34,900 1,800 Climbing Houston Center
Sun 10:45:27 AM 27.7647 -92.7833 128° Southeast 518 596 35,000 49 Climbing Houston Center
Sun 10:46:29 AM 27.6736 -92.6592 130° Southeast 516 594 35,000 -48 Level Houston Center
Sun 10:47:31 AM 27.5867 -92.5317 128° Southeast 514 592 34,900  Descending Houston Center
Sun 10:48:32 AM 27.4981 -92.4056 128° Southeast 514 592 35,000 49 Climbing Houston Center
Sun 10:49:34 AM 27.4094 -92.2797 128° Southeast 513 590 35,000  Level Houston Center
Sun 10:50:36 AM 27.3208 -92.1553 129° Southeast 512 589 35,000  Level Houston Center
Sun 10:51:37 AM 27.2317 -92.0289 128° Southeast 514 592 35,000 -49 Level Houston Center
Sun 10:52:39 AM 27.1117 -91.8953 135° Southeast 510 587 34,900  Descending Houston Center
Sun 10:53:40 AM 26.9983 -91.8061 145° Southeast 502 578 35,000 Climbing Houston Center
Sun 10:55:00 AM 26.8688 -91.7010 144° Southeast  Level FlightAware Approximate
Sun 11:02:00 AM 26.1866 -91.1545 145° Southeast  Level FlightAware Approximate
Sun 11:03:00 AM 26.0886 -91.0775 145° Southeast  Level FlightAware Approximate
Sun 11:04:00 AM 25.9906 -91.0005 145° Southeast  Level FlightAware Approximate
Sun 11:05:00 AM 25.8926 -90.9238 145° Southeast  Level FlightAware Approximate
Sun 11:06:00 AM 25.7945 -90.8471 145° Southeast  Level FlightAware Approximate
Sun 11:07:00 AM 25.6964 -90.7706 145° Southeast  Level FlightAware Approximate
Sun 11:08:00 AM 25.5982 -90.6942 145° Southeast  Level FlightAware Approximate
Sun 11:09:00 AM 25.5000 -90.6180 145° Southeast  Level FlightAware Approximate
Sun 11:10:00 AM 25.4018 -90.5418 145° Southeast  Level FlightAware Approximate
Sun 11:11:00 AM 25.3035 -90.4658 145° Southeast  Level FlightAware Approximate
Sun 11:12:00 AM 25.2052 -90.3899 145° Southeast  Level FlightAware Approximate
Sun 11:13:00 AM 25.1068 -90.3141 145° Southeast  Level FlightAware Approximate
Sun 11:14:00 AM 25.0084 -90.2385 145° Southeast  Level FlightAware Approximate
Sun 11:15:00 AM 24.9100 -90.1630 145° Southeast  Level FlightAware Approximate
Sun 11:16:00 AM 24.8115 -90.0875 145° Southeast  Level FlightAware Approximate
Sun 11:17:00 AM 24.7130 -90.0123 145° Southeast  Level FlightAware Approximate
Sun 11:18:00 AM 24.6144 -89.9371 145° Southeast  Level FlightAware Approximate
Sun 11:19:00 AM 24.5159 -89.8621 145° Southeast  Level FlightAware Approximate
Sun 11:19:54 AM 24.1830 -89.6110 146° Southeast 461 531 35,000  Level FlightAware ADS-B
Sun 11:20:00 AM 24.4184 -89.7857 146° Southeast  Level FlightAware Approximate
Sun 11:21:11 AM 24.0510 -89.5110 145° Southeast 461 531 35,000  Level FlightAware ADS-B
Sun 11:21:45 AM 23.9820 -89.4590 145° Southeast 460 529 35,000  Level FlightAware ADS-B
Sun 11:22:28 AM 23.9100 -89.4050 146° Southeast 459 528 35,000  Level FlightAware ADS-B
Sun 11:23:11 AM 23.8320 -89.3460 145° Southeast 459 528 35,000  Level FlightAware ADS-B
Sun 11:23:47 AM 23.7700 -89.3000 146° Southeast 459 528 35,000  Level FlightAware ADS-B
Sun 11:24:20 AM 23.7010 -89.2480 145° Southeast 459 528 35,000  Level FlightAware ADS-B
Sun 11:24:59 AM 23.6180 -89.1850 145° Southeast 457 526 35,000  Level FlightAware ADS-B
Sun 11:25:46 AM 23.5630 -89.1440 146° Southeast 457 526 35,000  Level FlightAware ADS-B
Sun 11:26:30 AM 23.4850 -89.0860 146° Southeast 456 525 35,000  Level FlightAware ADS-B
Sun 11:27:07 AM 23.4190 -89.0370 146° Southeast 455 524 35,000  Level FlightAware ADS-B
Sun 11:27:53 AM 23.3110 -88.9560 145° Southeast 452 520 35,000  Level FlightAware ADS-B
Sun 11:29:14 AM 23.1730 -88.8530 146° Southeast 453 521 35,000  Level FlightAware ADS-B
Sun 11:29:52 AM 23.1050 -88.8030 146° Southeast 454 522 35,000  Level FlightAware ADS-B
Sun 11:30:34 AM 23.0350 -88.7520 146° Southeast 455 524 35,000  Level FlightAware ADS-B
Sun 11:31:08 AM 22.9750 -88.7070 145° Southeast 455 524 35,000  Level FlightAware ADS-B
Sun 11:31:51 AM 22.8980 -88.6500 146° Southeast 456 525 35,000  Level FlightAware ADS-B
Sun 11:32:15 AM 22.8580 -88.6210 146° Southeast 456 525 35,000  Level FlightAware ADS-B
Sun 11:32:51 AM 22.7930 -88.5730 146° Southeast 457 526 35,000  Level FlightAware ADS-B
Sun 11:33:20 AM 22.7430 -88.5360 146° Southeast 457 526 35,000  Level FlightAware ADS-B
Sun 11:33:54 AM 22.6820 -88.4910 146° Southeast 457 526 35,000  Level FlightAware ADS-B
Sun 11:35:01 AM 22.5660 -88.4060 146° Southeast 456 525 35,000 -111 Level FlightAware ADS-B
Sun 11:35:42 AM 22.4960 -88.3540 146° Southeast 436 502 34,800 -632 Descending FlightAware ADS-B
Sun 11:35:58 AM 22.4720 -88.3370 147° Southeast 433 498 34,400 -2,620 Descending FlightAware ADS-B
Sun 11:36:53 AM 22.3750 -88.2660 146° Southeast 443 510 31,700 -2,878 Descending FlightAware ADS-B
Sun 11:37:36 AM 22.3040 -88.2140 146° Southeast 447 514 29,700 -2,000 Descending FlightAware ADS-B
Sun 11:37:59 AM 22.2960 -88.2090 150° Southeast 447 514 29,500 -2,338 Descending FlightAware ADS-B
Sun 11:38:53 AM 22.1720 -88.1140 145° Southeast 440 506 26,700 -2,694 Descending FlightAware ADS-B
Sun 11:39:37 AM 22.1080 -88.0500 137° Southeast 430 495 25,100 -2,217 Descending FlightAware ADS-B
Sun 11:40:25 AM 22.0380 -87.9780 136° Southeast 420 483 23,300 -2,222 Descending FlightAware ADS-B
Sun 11:40:58 AM 21.9940 -87.9330 137° Southeast 413 475 22,100 -1,629 Descending FlightAware ADS-B
Sun 11:41:35 AM 21.9640 -87.9020 136° Southeast 408 470 21,400 -1,636 Descending FlightAware ADS-B
Sun 11:42:15 AM 21.9100 -87.8470 137° Southeast 402 463 20,000 -2,148 Descending FlightAware ADS-B
Sun 11:42:56 AM 21.8540 -87.7900 137° Southeast 396 456 18,500 -2,561 Descending FlightAware ADS-B
Sun 11:43:37 AM 21.7800 -87.7140 136° Southeast 381 438 16,500 -2,582 Descending FlightAware ADS-B
Sun 11:44:15 AM 21.7310 -87.6650 137° Southeast 375 432 15,100 -2,032 Descending FlightAware ADS-B
Sun 11:44:39 AM 21.7010 -87.6350 137° Southeast 372 428 14,400 -2,000 Descending FlightAware ADS-B
Sun 11:45:12 AM 21.6610 -87.5940 136° Southeast 357 411 13,200 -1,676 Descending FlightAware ADS-B
Sun 11:45:47 AM 21.6200 -87.5520 136° Southeast 328 377 12,500 -1,014 Descending FlightAware ADS-B
Sun 11:46:23 AM 21.5810 -87.5130 137° Southeast 302 348 12,000 -1,147 Descending FlightAware ADS-B
Sun 11:46:55 AM 21.5490 -87.4800 136° Southeast 295 339 11,200 -1,421 Descending FlightAware ADS-B
Sun 11:47:39 AM 21.5060 -87.4370 137° Southeast 287 330 10,200 -1,227 Descending FlightAware ADS-B
Sun 11:48:23 AM 21.4650 -87.3960 137° Southeast 271 312 9,400 -1,213 Descending FlightAware ADS-B
Sun 11:49:13 AM 21.4200 -87.3500 136° Southeast 265 305 8,300 -1,133 Descending FlightAware ADS-B
Sun 11:49:53 AM 21.3840 -87.3140 137° Southeast 269 310 7,700 -1,013 Descending FlightAware ADS-B
Sun 11:50:30 AM 21.3510 -87.2810 137° Southeast 266 306 7,000 -1,286 Descending FlightAware ADS-B
Sun 11:51:03 AM 21.3210 -87.2500 136° Southeast 261 300 6,200 -1,324 Descending FlightAware ADS-B
Sun 11:51:38 AM 21.2910 -87.2200 137° Southeast 257 296 5,500 -1,235 Descending FlightAware ADS-B
Sun 11:52:11 AM 21.2620 -87.1910 137° Southeast 254 292 4,800 -1,304 Descending FlightAware ADS-B
Sun 11:52:47 AM 21.2300 -87.1590 137° Southeast 250 288 4,000 -740 Descending FlightAware ADS-B
Sun 11:53:24 AM 21.2070 -87.1250 126° Southeast 241 277 3,900  Descending FlightAware ADS-B
Sun 11:54:09 AM 21.1800 -87.0810 123° Southeast 202 232 4,000 -148 Climbing FlightAware ADS-B
Sun 11:54:45 AM 21.1630 -87.0540 124° Southeast 173 199 3,700 -667 Descending FlightAware ADS-B
Sun 11:55:21 AM 21.1470 -87.0290 124° Southeast 166 191 3,200 -833 Descending FlightAware ADS-B
Sun 11:55:57 AM 21.1320 -87.0050 124° Southeast 162 186 2,700 -892 Descending FlightAware ADS-B
Sun 11:56:35 AM 21.1160 -86.9800 124° Southeast 159 183 2,100 -878 Descending FlightAware ADS-B
Sun 11:57:19 AM 21.0990 -86.9520 123° Southeast 145 167 1,500 -833 Descending FlightAware ADS-B
Sun 11:57:47 AM 21.0880 -86.9350 125° Southeast 157 181 1,100 -656 Descending FlightAware ADS-B
Sun 11:58:23 AM 21.0770 -86.9180 125° Southeast 156 180 800 -701 Descending FlightAware ADS-B
Sun 11:59:04 AM 21.0610 -86.8920 123° Southeast 156 180 200 -878 Descending FlightAware ADS-B
Sun 11:59:18 AM 21.0560 -86.8830 121° Southeast 156 180 -857 Descending FlightAware ADS-B
Sun 11:59:43 AM 21.0480 -86.8700 123° Southeast 156 180  Level FlightAware ADS-B
Sun 12:03:00 PM 21.0365 -86.8771 137° Southeast  Level Estimated
Sun 12:04:00 PM 21.0365 -86.8771 137° Southeast  Level Estimated
Sun 12:05:00 PM 21.0365 -86.8771 137° Southeast  Level Estimated
Sun 12:06:00 PM 21.0365 -86.8771 137° Southeast  Level Estimated
Sun 12:07:00 PM 21.0365 -86.8771 137° Southeast  Level Estimated
Sun 12:08:00 PM 21.0365 -86.8771 137° Southeast  Level Estimated
Sun 12:09:00 PM 21.0365 -86.8771 137° Southeast  Level Estimated
Sun 12:10:00 PM 21.0365 -86.8771 137° Southeast  Level Estimated
Sun 12:11:00 PM 21.0365 -86.8771 137° Southeast  Level Estimated
Sun 12:12:00 PM 21.0365 -86.8771 137° Southeast  Level Estimated
Sun 12:13:00 PM 21.0365 -86.8771 137° Southeast  Level Estimated

Login

Don't have an account? Register now (free) for customized features, flight alerts, and more!